sensor_id;sensor_type;location;lat;lon;timestamp;P1;durP1;ratioP1;P2;durP2;ratioP2
51981;SDS011;37998;53.416;6.730;2022-12-24T00:01:59;19.20;;;12.45;;
51981;SDS011;37998;53.416;6.730;2022-12-24T00:04:25;17.63;;;12.00;;
51981;SDS011;37998;53.416;6.730;2022-12-24T00:06:51;21.38;;;13.30;;
51981;SDS011;37998;53.416;6.730;2022-12-24T00:09:16;21.52;;;13.32;;
51981;SDS011;37998;53.416;6.730;2022-12-24T00:11:42;18.23;;;12.10;;
51981;SDS011;37998;53.416;6.730;2022-12-24T00:14:08;18.92;;;12.35;;
51981;SDS011;37998;53.416;6.730;2022-12-24T00:16:33;20.05;;;12.65;;
51981;SDS011;37998;53.416;6.730;2022-12-24T00:18:59;18.27;;;11.77;;
51981;SDS011;37998;53.416;6.730;2022-12-24T00:21:25;19.50;;;12.77;;
51981;SDS011;37998;53.416;6.730;2022-12-24T00:23:50;19.00;;;11.75;;
51981;SDS011;37998;53.416;6.730;2022-12-24T00:26:16;17.48;;;11.65;;
51981;SDS011;37998;53.416;6.730;2022-12-24T00:28:42;19.25;;;13.10;;
51981;SDS011;37998;53.416;6.730;2022-12-24T00:31:08;21.05;;;12.70;;
51981;SDS011;37998;53.416;6.730;2022-12-24T00:33:36;19.83;;;13.07;;
51981;SDS011;37998;53.416;6.730;2022-12-24T00:36:02;19.63;;;12.80;;
51981;SDS011;37998;53.416;6.730;2022-12-24T00:38:28;19.30;;;12.27;;
51981;SDS011;37998;53.416;6.730;2022-12-24T00:41:00;18.25;;;11.95;;
51981;SDS011;37998;53.416;6.730;2022-12-24T00:43:27;19.08;;;12.95;;
51981;SDS011;37998;53.416;6.730;2022-12-24T00:45:53;20.65;;;13.23;;
51981;SDS011;37998;53.416;6.730;2022-12-24T00:48:20;20.27;;;12.80;;
51981;SDS011;37998;53.416;6.730;2022-12-24T00:50:46;20.33;;;12.48;;
51981;SDS011;37998;53.416;6.730;2022-12-24T00:53:13;21.10;;;13.00;;
51981;SDS011;37998;53.416;6.730;2022-12-24T00:55:38;21.17;;;12.52;;
51981;SDS011;37998;53.416;6.730;2022-12-24T00:58:04;22.40;;;12.77;;
51981;SDS011;37998;53.416;6.730;2022-12-24T01:00:29;20.67;;;12.82;;
51981;SDS011;37998;53.416;6.730;2022-12-24T01:02:55;17.83;;;12.30;;
51981;SDS011;37998;53.416;6.730;2022-12-24T01:05:20;19.40;;;13.10;;
51981;SDS011;37998;53.416;6.730;2022-12-24T01:07:47;20.38;;;12.68;;
51981;SDS011;37998;53.416;6.730;2022-12-24T01:10:14;19.05;;;12.45;;
51981;SDS011;37998;53.416;6.730;2022-12-24T01:12:42;20.83;;;13.13;;
51981;SDS011;37998;53.416;6.730;2022-12-24T01:15:08;20.38;;;12.38;;
51981;SDS011;37998;53.416;6.730;2022-12-24T01:17:35;20.33;;;13.15;;
51981;SDS011;37998;53.416;6.730;2022-12-24T01:20:02;19.95;;;13.13;;
51981;SDS011;37998;53.416;6.730;2022-12-24T01:22:28;20.00;;;12.75;;
51981;SDS011;37998;53.416;6.730;2022-12-24T01:24:54;21.15;;;12.70;;
51981;SDS011;37998;53.416;6.730;2022-12-24T01:27:19;21.55;;;13.40;;
51981;SDS011;37998;53.416;6.730;2022-12-24T01:29:45;18.05;;;12.25;;
51981;SDS011;37998;53.416;6.730;2022-12-24T01:32:11;16.42;;;12.15;;
51981;SDS011;37998;53.416;6.730;2022-12-24T01:34:36;19.80;;;12.82;;
51981;SDS011;37998;53.416;6.730;2022-12-24T01:37:02;21.08;;;13.73;;
51981;SDS011;37998;53.416;6.730;2022-12-24T01:39:27;19.23;;;12.50;;
51981;SDS011;37998;53.416;6.730;2022-12-24T01:41:53;24.17;;;13.40;;
51981;SDS011;37998;53.416;6.730;2022-12-24T01:44:39;20.83;;;13.73;;
51981;SDS011;37998;53.416;6.730;2022-12-24T01:47:13;19.45;;;13.35;;
51981;SDS011;37998;53.416;6.730;2022-12-24T01:49:46;20.42;;;12.35;;
51981;SDS011;37998;53.416;6.730;2022-12-24T01:52:27;20.48;;;13.68;;
51981;SDS011;37998;53.416;6.730;2022-12-24T01:54:57;19.88;;;12.82;;
51981;SDS011;37998;53.416;6.730;2022-12-24T01:57:31;21.05;;;13.23;;
51981;SDS011;37998;53.416;6.730;2022-12-24T02:00:12;25.25;;;14.73;;
51981;SDS011;37998;53.416;6.730;2022-12-24T02:02:39;22.75;;;13.15;;
51981;SDS011;37998;53.416;6.730;2022-12-24T02:05:42;21.55;;;13.52;;
51981;SDS011;37998;53.416;6.730;2022-12-24T02:08:08;21.52;;;13.40;;
51981;SDS011;37998;53.416;6.730;2022-12-24T02:10:35;22.92;;;13.43;;
51981;SDS011;37998;53.416;6.730;2022-12-24T02:13:00;23.02;;;14.27;;
51981;SDS011;37998;53.416;6.730;2022-12-24T02:15:27;24.90;;;13.75;;
51981;SDS011;37998;53.416;6.730;2022-12-24T02:18:13;25.73;;;15.00;;
51981;SDS011;37998;53.416;6.730;2022-12-24T02:21:05;22.73;;;13.77;;
51981;SDS011;37998;53.416;6.730;2022-12-24T02:31:58;25.45;;;14.32;;
51981;SDS011;37998;53.416;6.730;2022-12-24T02:34:40;22.15;;;14.02;;
51981;SDS011;37998;53.416;6.730;2022-12-24T02:37:14;26.35;;;15.50;;
51981;SDS011;37998;53.416;6.730;2022-12-24T02:39:51;23.63;;;14.80;;
51981;SDS011;37998;53.416;6.730;2022-12-24T02:42:23;20.85;;;14.02;;
51981;SDS011;37998;53.416;6.730;2022-12-24T02:44:58;25.38;;;14.93;;
51981;SDS011;37998;53.416;6.730;2022-12-24T02:47:28;24.75;;;14.75;;
51981;SDS011;37998;53.416;6.730;2022-12-24T02:49:55;27.15;;;14.52;;
51981;SDS011;37998;53.416;6.730;2022-12-24T02:52:28;23.30;;;14.45;;
51981;SDS011;37998;53.416;6.730;2022-12-24T02:55:00;22.73;;;13.95;;
51981;SDS011;37998;53.416;6.730;2022-12-24T03:00:23;22.98;;;14.55;;
51981;SDS011;37998;53.416;6.730;2022-12-24T03:08:50;24.85;;;14.68;;
51981;SDS011;37998;53.416;6.730;2022-12-24T03:13:34;22.90;;;14.43;;
51981;SDS011;37998;53.416;6.730;2022-12-24T03:16:00;24.88;;;14.82;;
51981;SDS011;37998;53.416;6.730;2022-12-24T03:18:29;22.52;;;15.02;;
51981;SDS011;37998;53.416;6.730;2022-12-24T03:20:57;23.40;;;14.60;;
51981;SDS011;37998;53.416;6.730;2022-12-24T03:23:27;22.27;;;14.27;;
51981;SDS011;37998;53.416;6.730;2022-12-24T03:25:53;18.38;;;13.52;;
51981;SDS011;37998;53.416;6.730;2022-12-24T03:28:19;19.85;;;13.55;;
51981;SDS011;37998;53.416;6.730;2022-12-24T03:30:51;20.42;;;14.13;;
51981;SDS011;37998;53.416;6.730;2022-12-24T03:33:17;19.95;;;13.73;;
51981;SDS011;37998;53.416;6.730;2022-12-24T03:35:42;18.55;;;13.48;;
51981;SDS011;37998;53.416;6.730;2022-12-24T03:38:08;17.88;;;13.90;;
51981;SDS011;37998;53.416;6.730;2022-12-24T03:40:37;21.92;;;13.57;;
51981;SDS011;37998;53.416;6.730;2022-12-24T03:43:03;18.42;;;13.70;;
51981;SDS011;37998;53.416;6.730;2022-12-24T03:45:29;18.45;;;13.52;;
51981;SDS011;37998;53.416;6.730;2022-12-24T03:47:54;19.27;;;13.68;;
51981;SDS011;37998;53.416;6.730;2022-12-24T03:50:20;22.15;;;13.98;;
51981;SDS011;37998;53.416;6.730;2022-12-24T03:52:46;24.10;;;14.55;;
51981;SDS011;37998;53.416;6.730;2022-12-24T03:55:11;17.92;;;13.50;;
51981;SDS011;37998;53.416;6.730;2022-12-24T03:57:37;22.45;;;14.30;;
51981;SDS011;37998;53.416;6.730;2022-12-24T04:00:06;20.90;;;14.23;;
51981;SDS011;37998;53.416;6.730;2022-12-24T04:02:32;24.52;;;14.98;;
51981;SDS011;37998;53.416;6.730;2022-12-24T04:04:57;22.20;;;14.65;;
51981;SDS011;37998;53.416;6.730;2022-12-24T04:07:23;21.75;;;14.23;;
51981;SDS011;37998;53.416;6.730;2022-12-24T04:09:49;19.75;;;14.02;;
51981;SDS011;37998;53.416;6.730;2022-12-24T04:12:14;21.67;;;14.95;;
51981;SDS011;37998;53.416;6.730;2022-12-24T04:14:40;22.25;;;15.05;;
51981;SDS011;37998;53.416;6.730;2022-12-24T04:17:05;23.35;;;16.02;;
51981;SDS011;37998;53.416;6.730;2022-12-24T04:19:31;22.50;;;14.73;;
51981;SDS011;37998;53.416;6.730;2022-12-24T04:21:57;21.17;;;14.30;;
51981;SDS011;37998;53.416;6.730;2022-12-24T04:24:22;21.55;;;14.57;;
51981;SDS011;37998;53.416;6.730;2022-12-24T04:26:48;23.55;;;14.90;;
51981;SDS011;37998;53.416;6.730;2022-12-24T04:29:14;24.15;;;15.70;;
51981;SDS011;37998;53.416;6.730;2022-12-24T04:31:39;24.20;;;16.48;;
51981;SDS011;37998;53.416;6.730;2022-12-24T04:34:05;20.00;;;13.82;;
51981;SDS011;37998;53.416;6.730;2022-12-24T04:36:30;23.23;;;15.40;;
51981;SDS011;37998;53.416;6.730;2022-12-24T04:38:56;23.75;;;15.32;;
51981;SDS011;37998;53.416;6.730;2022-12-24T04:41:22;23.17;;;15.70;;
51981;SDS011;37998;53.416;6.730;2022-12-24T04:43:48;20.95;;;15.45;;
51981;SDS011;37998;53.416;6.730;2022-12-24T04:46:16;27.33;;;16.25;;
51981;SDS011;37998;53.416;6.730;2022-12-24T04:48:47;26.67;;;16.60;;
51981;SDS011;37998;53.416;6.730;2022-12-24T04:51:15;22.38;;;15.25;;
51981;SDS011;37998;53.416;6.730;2022-12-24T04:53:42;24.48;;;15.77;;
51981;SDS011;37998;53.416;6.730;2022-12-24T04:56:10;21.45;;;15.82;;
51981;SDS011;37998;53.416;6.730;2022-12-24T04:58:38;24.77;;;16.17;;
51981;SDS011;37998;53.416;6.730;2022-12-24T05:01:04;23.30;;;16.10;;
51981;SDS011;37998;53.416;6.730;2022-12-24T05:03:32;22.45;;;15.38;;
51981;SDS011;37998;53.416;6.730;2022-12-24T05:06:04;24.60;;;16.63;;
51981;SDS011;37998;53.416;6.730;2022-12-24T05:08:32;23.58;;;16.73;;
51981;SDS011;37998;53.416;6.730;2022-12-24T05:10:58;21.85;;;15.90;;
51981;SDS011;37998;53.416;6.730;2022-12-24T05:13:25;27.90;;;16.95;;
51981;SDS011;37998;53.416;6.730;2022-12-24T05:15:52;25.75;;;16.60;;
51981;SDS011;37998;53.416;6.730;2022-12-24T05:18:18;23.83;;;14.88;;
51981;SDS011;37998;53.416;6.730;2022-12-24T05:20:44;24.55;;;17.27;;
51981;SDS011;37998;53.416;6.730;2022-12-24T05:23:14;26.25;;;17.17;;
51981;SDS011;37998;53.416;6.730;2022-12-24T05:25:59;25.80;;;17.08;;
51981;SDS011;37998;53.416;6.730;2022-12-24T05:28:44;24.38;;;16.27;;
51981;SDS011;37998;53.416;6.730;2022-12-24T05:31:09;27.17;;;16.60;;
51981;SDS011;37998;53.416;6.730;2022-12-24T05:33:35;25.52;;;15.57;;
51981;SDS011;37998;53.416;6.730;2022-12-24T05:36:01;26.52;;;16.55;;
51981;SDS011;37998;53.416;6.730;2022-12-24T05:38:26;26.50;;;16.00;;
51981;SDS011;37998;53.416;6.730;2022-12-24T05:40:52;26.38;;;14.23;;
51981;SDS011;37998;53.416;6.730;2022-12-24T05:43:18;35.60;;;15.95;;
51981;SDS011;37998;53.416;6.730;2022-12-24T05:45:43;25.25;;;12.98;;
51981;SDS011;37998;53.416;6.730;2022-12-24T05:48:09;20.88;;;11.75;;
51981;SDS011;37998;53.416;6.730;2022-12-24T05:50:35;28.85;;;12.65;;
51981;SDS011;37998;53.416;6.730;2022-12-24T05:53:04;28.38;;;12.30;;
51981;SDS011;37998;53.416;6.730;2022-12-24T05:55:30;31.65;;;12.73;;
51981;SDS011;37998;53.416;6.730;2022-12-24T05:57:56;29.65;;;13.35;;
51981;SDS011;37998;53.416;6.730;2022-12-24T06:00:22;31.55;;;11.20;;
51981;SDS011;37998;53.416;6.730;2022-12-24T06:02:47;33.67;;;11.75;;
51981;SDS011;37998;53.416;6.730;2022-12-24T06:05:13;29.60;;;9.77;;
51981;SDS011;37998;53.416;6.730;2022-12-24T06:07:39;28.83;;;9.70;;
51981;SDS011;37998;53.416;6.730;2022-12-24T06:10:05;30.27;;;9.40;;
51981;SDS011;37998;53.416;6.730;2022-12-24T06:12:31;29.60;;;9.20;;
51981;SDS011;37998;53.416;6.730;2022-12-24T06:15:00;33.65;;;8.68;;
51981;SDS011;37998;53.416;6.730;2022-12-24T06:17:26;25.85;;;7.93;;
51981;SDS011;37998;53.416;6.730;2022-12-24T06:19:51;23.63;;;7.95;;
51981;SDS011;37998;53.416;6.730;2022-12-24T06:22:17;30.55;;;6.72;;
51981;SDS011;37998;53.416;6.730;2022-12-24T06:24:43;21.98;;;7.25;;
51981;SDS011;37998;53.416;6.730;2022-12-24T06:27:09;38.28;;;7.45;;
51981;SDS011;37998;53.416;6.730;2022-12-24T06:29:34;34.10;;;6.82;;
51981;SDS011;37998;53.416;6.730;2022-12-24T06:32:00;44.47;;;7.18;;
51981;SDS011;37998;53.416;6.730;2022-12-24T06:34:25;40.50;;;7.82;;
51981;SDS011;37998;53.416;6.730;2022-12-24T06:36:51;31.35;;;8.65;;
51981;SDS011;37998;53.416;6.730;2022-12-24T06:39:17;43.20;;;7.95;;
51981;SDS011;37998;53.416;6.730;2022-12-24T06:41:42;33.92;;;7.15;;
51981;SDS011;37998;53.416;6.730;2022-12-24T06:44:08;37.67;;;9.13;;
51981;SDS011;37998;53.416;6.730;2022-12-24T06:46:33;33.53;;;7.70;;
51981;SDS011;37998;53.416;6.730;2022-12-24T06:48:59;42.60;;;8.27;;
51981;SDS011;37998;53.416;6.730;2022-12-24T06:51:25;34.22;;;6.63;;
51981;SDS011;37998;53.416;6.730;2022-12-24T06:53:50;45.15;;;7.88;;
51981;SDS011;37998;53.416;6.730;2022-12-24T06:56:17;47.00;;;8.13;;
51981;SDS011;37998;53.416;6.730;2022-12-24T06:58:44;40.08;;;7.28;;
51981;SDS011;37998;53.416;6.730;2022-12-24T07:01:11;55.78;;;9.15;;
51981;SDS011;37998;53.416;6.730;2022-12-24T07:03:38;42.63;;;8.35;;
51981;SDS011;37998;53.416;6.730;2022-12-24T07:06:04;55.95;;;8.85;;
51981;SDS011;37998;53.416;6.730;2022-12-24T07:08:31;42.67;;;8.57;;
51981;SDS011;37998;53.416;6.730;2022-12-24T07:11:00;45.03;;;8.73;;
51981;SDS011;37998;53.416;6.730;2022-12-24T07:13:26;51.03;;;10.13;;
51981;SDS011;37998;53.416;6.730;2022-12-24T07:16:01;48.05;;;8.60;;
51981;SDS011;37998;53.416;6.730;2022-12-24T07:18:28;48.78;;;9.10;;
51981;SDS011;37998;53.416;6.730;2022-12-24T07:20:54;52.97;;;8.48;;
51981;SDS011;37998;53.416;6.730;2022-12-24T07:23:19;54.47;;;9.07;;
51981;SDS011;37998;53.416;6.730;2022-12-24T07:25:45;50.85;;;10.00;;
51981;SDS011;37998;53.416;6.730;2022-12-24T07:28:11;52.13;;;9.07;;
51981;SDS011;37998;53.416;6.730;2022-12-24T07:30:36;46.00;;;8.25;;
51981;SDS011;37998;53.416;6.730;2022-12-24T07:33:02;40.90;;;8.55;;
51981;SDS011;37998;53.416;6.730;2022-12-24T07:35:28;48.72;;;8.38;;
51981;SDS011;37998;53.416;6.730;2022-12-24T07:37:53;38.88;;;7.50;;
51981;SDS011;37998;53.416;6.730;2022-12-24T07:40:19;42.00;;;7.32;;
51981;SDS011;37998;53.416;6.730;2022-12-24T07:42:44;48.08;;;10.18;;
51981;SDS011;37998;53.416;6.730;2022-12-24T07:45:10;55.03;;;8.32;;
51981;SDS011;37998;53.416;6.730;2022-12-24T07:47:36;51.17;;;9.15;;
51981;SDS011;37998;53.416;6.730;2022-12-24T07:50:02;43.58;;;7.60;;
51981;SDS011;37998;53.416;6.730;2022-12-24T07:52:29;41.35;;;7.82;;
51981;SDS011;37998;53.416;6.730;2022-12-24T07:54:54;51.80;;;8.60;;
51981;SDS011;37998;53.416;6.730;2022-12-24T07:57:20;41.78;;;7.70;;
51981;SDS011;37998;53.416;6.730;2022-12-24T07:59:46;45.55;;;7.60;;
51981;SDS011;37998;53.416;6.730;2022-12-24T08:02:11;45.60;;;7.97;;
51981;SDS011;37998;53.416;6.730;2022-12-24T08:04:37;59.60;;;8.93;;
51981;SDS011;37998;53.416;6.730;2022-12-24T08:07:03;50.38;;;7.72;;
51981;SDS011;37998;53.416;6.730;2022-12-24T08:09:31;45.88;;;8.32;;
51981;SDS011;37998;53.416;6.730;2022-12-24T08:11:57;44.88;;;8.55;;
51981;SDS011;37998;53.416;6.730;2022-12-24T08:14:23;46.05;;;8.70;;
51981;SDS011;37998;53.416;6.730;2022-12-24T08:16:49;42.60;;;8.85;;
51981;SDS011;37998;53.416;6.730;2022-12-24T08:19:14;44.58;;;8.10;;
51981;SDS011;37998;53.416;6.730;2022-12-24T08:21:40;42.00;;;7.38;;
51981;SDS011;37998;53.416;6.730;2022-12-24T08:24:06;45.78;;;7.15;;
51981;SDS011;37998;53.416;6.730;2022-12-24T08:26:32;49.72;;;8.00;;
51981;SDS011;37998;53.416;6.730;2022-12-24T08:28:58;41.13;;;8.10;;
51981;SDS011;37998;53.416;6.730;2022-12-24T08:31:23;42.38;;;8.70;;
51981;SDS011;37998;53.416;6.730;2022-12-24T08:33:49;42.53;;;7.93;;
51981;SDS011;37998;53.416;6.730;2022-12-24T08:36:15;34.92;;;8.55;;
51981;SDS011;37998;53.416;6.730;2022-12-24T08:38:40;40.35;;;6.78;;
51981;SDS011;37998;53.416;6.730;2022-12-24T08:41:06;47.10;;;7.22;;
51981;SDS011;37998;53.416;6.730;2022-12-24T08:43:32;41.55;;;7.90;;
51981;SDS011;37998;53.416;6.730;2022-12-24T08:46:00;43.15;;;8.05;;
51981;SDS011;37998;53.416;6.730;2022-12-24T08:48:28;42.28;;;7.70;;
51981;SDS011;37998;53.416;6.730;2022-12-24T08:50:53;37.83;;;7.70;;
51981;SDS011;37998;53.416;6.730;2022-12-24T08:53:19;41.83;;;7.70;;
51981;SDS011;37998;53.416;6.730;2022-12-24T08:55:45;32.58;;;6.97;;
51981;SDS011;37998;53.416;6.730;2022-12-24T08:58:11;51.65;;;8.50;;
51981;SDS011;37998;53.416;6.730;2022-12-24T09:00:36;43.38;;;7.43;;
51981;SDS011;37998;53.416;6.730;2022-12-24T09:03:02;43.25;;;7.80;;
51981;SDS011;37998;53.416;6.730;2022-12-24T09:05:28;34.30;;;6.60;;
51981;SDS011;37998;53.416;6.730;2022-12-24T09:07:53;55.42;;;7.60;;
51981;SDS011;37998;53.416;6.730;2022-12-24T09:10:19;35.95;;;6.55;;
51981;SDS011;37998;53.416;6.730;2022-12-24T09:12:45;36.55;;;7.28;;
51981;SDS011;37998;53.416;6.730;2022-12-24T09:15:12;47.17;;;7.88;;
51981;SDS011;37998;53.416;6.730;2022-12-24T09:17:38;48.95;;;9.32;;
51981;SDS011;37998;53.416;6.730;2022-12-24T09:20:04;36.67;;;7.70;;
51981;SDS011;37998;53.416;6.730;2022-12-24T09:22:33;51.15;;;8.23;;
51981;SDS011;37998;53.416;6.730;2022-12-24T09:25:00;31.58;;;7.57;;
51981;SDS011;37998;53.416;6.730;2022-12-24T09:27:26;54.13;;;8.75;;
51981;SDS011;37998;53.416;6.730;2022-12-24T09:29:51;43.25;;;7.15;;
51981;SDS011;37998;53.416;6.730;2022-12-24T09:32:17;41.83;;;7.18;;
51981;SDS011;37998;53.416;6.730;2022-12-24T09:34:43;57.92;;;8.10;;
51981;SDS011;37998;53.416;6.730;2022-12-24T09:37:08;44.42;;;7.72;;
51981;SDS011;37998;53.416;6.730;2022-12-24T09:39:34;45.65;;;9.88;;
51981;SDS011;37998;53.416;6.730;2022-12-24T09:42:17;39.78;;;8.38;;
51981;SDS011;37998;53.416;6.730;2022-12-24T09:47:43;50.40;;;8.20;;
51981;SDS011;37998;53.416;6.730;2022-12-24T09:50:35;34.25;;;7.30;;
51981;SDS011;37998;53.416;6.730;2022-12-24T09:53:03;37.55;;;6.85;;
51981;SDS011;37998;53.416;6.730;2022-12-24T09:55:39;41.83;;;7.80;;
51981;SDS011;37998;53.416;6.730;2022-12-24T09:58:15;38.15;;;7.68;;
51981;SDS011;37998;53.416;6.730;2022-12-24T10:00:49;37.47;;;7.32;;
51981;SDS011;37998;53.416;6.730;2022-12-24T10:03:16;42.97;;;6.95;;
51981;SDS011;37998;53.416;6.730;2022-12-24T10:05:45;42.60;;;7.05;;
51981;SDS011;37998;53.416;6.730;2022-12-24T10:11:24;42.20;;;6.60;;
51981;SDS011;37998;53.416;6.730;2022-12-24T10:28:00;34.22;;;7.22;;
51981;SDS011;37998;53.416;6.730;2022-12-24T10:30:29;36.80;;;7.63;;
51981;SDS011;37998;53.416;6.730;2022-12-24T10:32:55;36.28;;;7.30;;
51981;SDS011;37998;53.416;6.730;2022-12-24T10:35:22;34.70;;;8.48;;
51981;SDS011;37998;53.416;6.730;2022-12-24T10:38:10;35.70;;;7.15;;
51981;SDS011;37998;53.416;6.730;2022-12-24T10:40:41;45.28;;;8.27;;
51981;SDS011;37998;53.416;6.730;2022-12-24T10:43:13;38.47;;;7.43;;
51981;SDS011;37998;53.416;6.730;2022-12-24T10:45:50;40.17;;;7.70;;
51981;SDS011;37998;53.416;6.730;2022-12-24T10:48:29;41.95;;;8.45;;
51981;SDS011;37998;53.416;6.730;2022-12-24T10:51:05;42.28;;;7.95;;
51981;SDS011;37998;53.416;6.730;2022-12-24T10:53:59;36.67;;;7.45;;
51981;SDS011;37998;53.416;6.730;2022-12-24T10:56:28;36.47;;;7.75;;
51981;SDS011;37998;53.416;6.730;2022-12-24T10:58:54;48.65;;;8.25;;
51981;SDS011;37998;53.416;6.730;2022-12-24T11:01:20;35.58;;;7.40;;
51981;SDS011;37998;53.416;6.730;2022-12-24T11:04:17;40.45;;;8.20;;
51981;SDS011;37998;53.416;6.730;2022-12-24T11:09:39;45.08;;;8.80;;
51981;SDS011;37998;53.416;6.730;2022-12-24T11:12:05;36.63;;;6.90;;
51981;SDS011;37998;53.416;6.730;2022-12-24T11:14:42;42.15;;;8.75;;
51981;SDS011;37998;53.416;6.730;2022-12-24T11:17:17;32.80;;;8.88;;
51981;SDS011;37998;53.416;6.730;2022-12-24T11:19:46;39.95;;;9.18;;
51981;SDS011;37998;53.416;6.730;2022-12-24T11:22:18;38.35;;;9.25;;
51981;SDS011;37998;53.416;6.730;2022-12-24T11:24:54;45.30;;;8.32;;
51981;SDS011;37998;53.416;6.730;2022-12-24T11:27:31;29.70;;;8.25;;
51981;SDS011;37998;53.416;6.730;2022-12-24T11:35:28;34.72;;;8.40;;
51981;SDS011;37998;53.416;6.730;2022-12-24T11:38:08;33.30;;;7.18;;
51981;SDS011;37998;53.416;6.730;2022-12-24T11:43:04;48.78;;;8.48;;
51981;SDS011;37998;53.416;6.730;2022-12-24T11:45:31;49.10;;;8.73;;
51981;SDS011;37998;53.416;6.730;2022-12-24T11:47:58;52.15;;;8.63;;
51981;SDS011;37998;53.416;6.730;2022-12-24T11:50:31;35.25;;;7.38;;
51981;SDS011;37998;53.416;6.730;2022-12-24T11:55:41;41.78;;;7.15;;
51981;SDS011;37998;53.416;6.730;2022-12-24T12:01:00;35.30;;;7.30;;
51981;SDS011;37998;53.416;6.730;2022-12-24T12:03:49;36.60;;;7.50;;
51981;SDS011;37998;53.416;6.730;2022-12-24T12:08:56;36.20;;;6.65;;
51981;SDS011;37998;53.416;6.730;2022-12-24T12:11:25;36.58;;;6.70;;
51981;SDS011;37998;53.416;6.730;2022-12-24T12:13:53;31.45;;;6.47;;
51981;SDS011;37998;53.416;6.730;2022-12-24T12:16:23;35.78;;;7.30;;
51981;SDS011;37998;53.416;6.730;2022-12-24T12:19:24;31.83;;;7.55;;
51981;SDS011;37998;53.416;6.730;2022-12-24T12:21:52;32.42;;;6.97;;
51981;SDS011;37998;53.416;6.730;2022-12-24T12:24:18;30.58;;;7.05;;
51981;SDS011;37998;53.416;6.730;2022-12-24T12:26:54;34.70;;;6.38;;
51981;SDS011;37998;53.416;6.730;2022-12-24T12:29:35;33.22;;;6.80;;
51981;SDS011;37998;53.416;6.730;2022-12-24T12:32:10;33.97;;;6.15;;
51981;SDS011;37998;53.416;6.730;2022-12-24T12:35:08;20.92;;;4.90;;
51981;SDS011;37998;53.416;6.730;2022-12-24T12:37:40;36.65;;;6.18;;
51981;SDS011;37998;53.416;6.730;2022-12-24T12:40:15;22.90;;;5.82;;
51981;SDS011;37998;53.416;6.730;2022-12-24T12:42:45;22.25;;;5.60;;
51981;SDS011;37998;53.416;6.730;2022-12-24T12:45:32;25.35;;;5.63;;
51981;SDS011;37998;53.416;6.730;2022-12-24T12:48:13;22.58;;;6.22;;
51981;SDS011;37998;53.416;6.730;2022-12-24T12:58:37;20.58;;;4.78;;
51981;SDS011;37998;53.416;6.730;2022-12-24T13:01:10;24.02;;;5.35;;
51981;SDS011;37998;53.416;6.730;2022-12-24T13:04:09;22.30;;;4.72;;
51981;SDS011;37998;53.416;6.730;2022-12-24T13:12:33;23.20;;;5.13;;
51981;SDS011;37998;53.416;6.730;2022-12-24T13:20:50;19.03;;;4.10;;
51981;SDS011;37998;53.416;6.730;2022-12-24T13:23:18;19.95;;;4.32;;
51981;SDS011;37998;53.416;6.730;2022-12-24T13:25:46;15.18;;;3.83;;
51981;SDS011;37998;53.416;6.730;2022-12-24T13:30:47;16.77;;;3.75;;
51981;SDS011;37998;53.416;6.730;2022-12-24T13:38:30;20.58;;;4.28;;
51981;SDS011;37998;53.416;6.730;2022-12-24T13:44:00;17.52;;;4.70;;
51981;SDS011;37998;53.416;6.730;2022-12-24T13:49:35;19.75;;;4.28;;
51981;SDS011;37998;53.416;6.730;2022-12-24T13:52:07;13.27;;;3.85;;
51981;SDS011;37998;53.416;6.730;2022-12-24T13:54:44;16.83;;;4.75;;
51981;SDS011;37998;53.416;6.730;2022-12-24T14:00:28;20.13;;;4.45;;
51981;SDS011;37998;53.416;6.730;2022-12-24T14:05:36;15.20;;;3.65;;
51981;SDS011;37998;53.416;6.730;2022-12-24T14:08:09;19.73;;;3.90;;
51981;SDS011;37998;53.416;6.730;2022-12-24T14:10:39;29.60;;;4.55;;
51981;SDS011;37998;53.416;6.730;2022-12-24T14:16:14;19.50;;;4.30;;
51981;SDS011;37998;53.416;6.730;2022-12-24T14:21:33;19.88;;;4.53;;
51981;SDS011;37998;53.416;6.730;2022-12-24T14:24:02;16.88;;;3.97;;
51981;SDS011;37998;53.416;6.730;2022-12-24T14:26:35;21.30;;;5.05;;
51981;SDS011;37998;53.416;6.730;2022-12-24T14:29:26;21.60;;;4.78;;
51981;SDS011;37998;53.416;6.730;2022-12-24T14:34:22;21.50;;;4.18;;
51981;SDS011;37998;53.416;6.730;2022-12-24T14:36:49;16.02;;;4.30;;
51981;SDS011;37998;53.416;6.730;2022-12-24T14:39:23;13.35;;;4.30;;
51981;SDS011;37998;53.416;6.730;2022-12-24T14:47:29;14.70;;;4.20;;
51981;SDS011;37998;53.416;6.730;2022-12-24T14:53:33;18.02;;;4.55;;
51981;SDS011;37998;53.416;6.730;2022-12-24T14:55:52;15.15;;;4.43;;
51981;SDS011;37998;53.416;6.730;2022-12-24T15:00:44;17.00;;;4.57;;
51981;SDS011;37998;53.416;6.730;2022-12-24T15:03:13;19.67;;;4.15;;
51981;SDS011;37998;53.416;6.730;2022-12-24T15:05:40;27.85;;;5.80;;
51981;SDS011;37998;53.416;6.730;2022-12-24T15:08:11;21.55;;;5.05;;
51981;SDS011;37998;53.416;6.730;2022-12-24T15:10:44;22.42;;;4.78;;
51981;SDS011;37998;53.416;6.730;2022-12-24T15:13:20;22.27;;;5.82;;
51981;SDS011;37998;53.416;6.730;2022-12-24T15:16:05;27.35;;;6.05;;
51981;SDS011;37998;53.416;6.730;2022-12-24T15:18:33;19.10;;;4.72;;
51981;SDS011;37998;53.416;6.730;2022-12-24T15:21:02;20.80;;;4.20;;
51981;SDS011;37998;53.416;6.730;2022-12-24T15:23:32;15.48;;;4.85;;
51981;SDS011;37998;53.416;6.730;2022-12-24T15:28:40;26.75;;;4.55;;
51981;SDS011;37998;53.416;6.730;2022-12-24T15:31:09;15.32;;;5.18;;
51981;SDS011;37998;53.416;6.730;2022-12-24T15:33:37;16.77;;;4.40;;
51981;SDS011;37998;53.416;6.730;2022-12-24T15:36:04;20.35;;;5.03;;
51981;SDS011;37998;53.416;6.730;2022-12-24T15:38:32;21.67;;;5.43;;
51981;SDS011;37998;53.416;6.730;2022-12-24T15:41:04;23.92;;;4.90;;
51981;SDS011;37998;53.416;6.730;2022-12-24T15:43:38;28.45;;;5.47;;
51981;SDS011;37998;53.416;6.730;2022-12-24T15:46:04;21.35;;;4.80;;
51981;SDS011;37998;53.416;6.730;2022-12-24T15:48:30;26.33;;;5.05;;
51981;SDS011;37998;53.416;6.730;2022-12-24T15:50:57;22.23;;;5.57;;
51981;SDS011;37998;53.416;6.730;2022-12-24T15:53:36;18.08;;;5.32;;
51981;SDS011;37998;53.416;6.730;2022-12-24T15:56:49;23.75;;;4.93;;
51981;SDS011;37998;53.416;6.730;2022-12-24T16:01:49;26.02;;;4.88;;
51981;SDS011;37998;53.416;6.730;2022-12-24T16:04:16;23.35;;;4.47;;
51981;SDS011;37998;53.416;6.730;2022-12-24T16:06:53;19.67;;;5.10;;
51981;SDS011;37998;53.416;6.730;2022-12-24T16:12:00;22.52;;;5.00;;
51981;SDS011;37998;53.416;6.730;2022-12-24T16:14:36;28.27;;;4.80;;
51981;SDS011;37998;53.416;6.730;2022-12-24T16:17:15;18.33;;;5.20;;
51981;SDS011;37998;53.416;6.730;2022-12-24T16:19:49;17.52;;;4.93;;
51981;SDS011;37998;53.416;6.730;2022-12-24T16:22:18;21.17;;;6.25;;
51981;SDS011;37998;53.416;6.730;2022-12-24T16:25:19;15.38;;;4.45;;
51981;SDS011;37998;53.416;6.730;2022-12-24T16:27:47;20.92;;;4.68;;
51981;SDS011;37998;53.416;6.730;2022-12-24T16:30:14;30.90;;;6.10;;
51981;SDS011;37998;53.416;6.730;2022-12-24T16:32:40;21.13;;;5.15;;
51981;SDS011;37998;53.416;6.730;2022-12-24T16:35:09;25.35;;;5.15;;
51981;SDS011;37998;53.416;6.730;2022-12-24T16:37:50;20.05;;;5.20;;
51981;SDS011;37998;53.416;6.730;2022-12-24T16:40:16;26.48;;;6.53;;
51981;SDS011;37998;53.416;6.730;2022-12-24T16:42:42;28.42;;;4.88;;
51981;SDS011;37998;53.416;6.730;2022-12-24T16:45:29;19.00;;;5.85;;
51981;SDS011;37998;53.416;6.730;2022-12-24T16:47:57;23.38;;;5.13;;